createdAt,value
2019-03-13T17:28:33.348Z,7.26
2019-03-13T17:31:01.641Z,7.20
2019-03-13T17:33:29.933Z,7.14
2019-03-13T17:35:58.275Z,7.10
2019-03-13T17:39:24.299Z,7.14
2019-03-13T17:41:52.654Z,7.07
2019-03-13T17:44:20.938Z,7.12
2019-03-13T17:46:49.283Z,7.08
2019-03-13T17:49:17.643Z,7.08
2019-03-13T17:51:48.371Z,7.01
2019-03-13T17:54:16.047Z,6.95
2019-03-13T17:56:44.394Z,7.02
2019-03-13T17:59:12.782Z,6.94
2019-03-13T18:01:41.146Z,6.85
2019-03-13T18:04:09.461Z,6.89
2019-03-13T18:06:37.802Z,6.93
2019-03-13T18:09:06.080Z,6.96
2019-03-13T18:11:34.363Z,6.94
2019-03-13T18:14:02.668Z,6.88
2019-03-13T18:16:31.025Z,6.96
2019-03-13T18:18:59.330Z,6.95
2019-03-13T18:21:27.656Z,6.97
2019-03-13T18:23:56.001Z,6.95
2019-03-13T18:26:24.310Z,6.91
2019-03-13T18:28:52.687Z,6.95
2019-03-13T18:31:20.983Z,6.94
2019-03-13T18:33:49.277Z,6.91
2019-03-13T18:36:17.768Z,6.83
2019-03-13T18:38:46.037Z,6.84
2019-03-13T18:41:14.383Z,6.82
2019-03-13T18:43:42.713Z,6.72
2019-03-13T18:46:11.011Z,6.73
2019-03-13T18:48:39.334Z,6.72
2019-03-13T18:51:07.621Z,6.71
2019-03-13T18:53:35.932Z,6.74
2019-03-13T18:56:04.254Z,6.68
2019-03-13T18:58:34.842Z,6.69
2019-03-13T19:01:03.352Z,6.63
2019-03-13T19:03:31.645Z,6.64
2019-03-13T19:06:00.200Z,6.57
2019-03-13T19:08:28.853Z,6.54
2019-03-13T19:10:57.132Z,6.50
2019-03-13T19:13:25.478Z,7.10
2019-03-13T19:15:54.597Z,7.96
2019-03-13T19:18:22.876Z,6.15
2019-03-13T19:20:53.907Z,6.02
2019-03-13T19:23:22.396Z,6.03
2019-03-13T19:25:50.666Z,6.04
2019-03-13T19:28:19.021Z,5.94
2019-03-13T19:30:47.284Z,5.92
2019-03-13T19:33:15.565Z,5.88
2019-03-13T19:35:43.874Z,5.99
2019-03-13T19:38:16.509Z,5.87
2019-03-13T19:40:44.884Z,5.88
2019-03-13T19:43:13.195Z,5.94
2019-03-13T19:45:50.525Z,5.92
2019-03-13T19:48:18.805Z,5.99
2019-03-13T19:50:47.090Z,5.96
2019-03-13T19:53:15.444Z,5.97
2019-03-13T19:55:43.833Z,6.02
2019-03-13T19:58:12.124Z,6.12
2019-03-13T20:00:40.496Z,6.18
2019-03-13T20:03:13.551Z,6.13
2019-03-13T20:05:46.047Z,6.19
2019-03-13T20:08:13.651Z,6.21
2019-03-13T20:10:41.348Z,6.17
2019-03-13T20:13:10.002Z,6.15
2019-03-13T20:15:38.336Z,6.17
2019-03-13T20:18:06.619Z,6.19
2019-03-13T20:20:34.895Z,6.11
2019-03-13T20:23:04.965Z,6.18
2019-03-13T20:25:32.592Z,6.27
2019-03-13T20:28:00.874Z,6.22
2019-03-13T20:30:29.277Z,6.35
2019-03-13T20:32:57.631Z,6.30
2019-03-13T20:35:25.929Z,6.32
2019-03-13T20:37:54.241Z,6.28
2019-03-13T20:40:26.488Z,6.28
2019-03-13T20:42:54.763Z,6.26
2019-03-13T20:45:30.962Z,6.25
2019-03-13T20:47:59.339Z,6.20
2019-03-13T20:50:36.704Z,6.15
2019-03-13T20:52:57.110Z,6.16
2019-03-13T20:55:25.462Z,6.20
2019-03-13T20:57:53.902Z,6.19
2019-03-13T21:00:26.004Z,6.12
2019-03-13T21:02:55.342Z,6.08
2019-03-13T21:05:23.726Z,6.07
2019-03-13T21:07:52.148Z,6.02
2019-03-13T21:10:20.516Z,6.04
2019-03-13T21:12:48.791Z,5.98
2019-03-13T21:15:20.395Z,5.96
2019-03-13T21:17:48.649Z,5.91
2019-03-13T21:20:17.761Z,5.78
2019-03-13T21:22:46.075Z,5.71
2019-03-13T21:25:18.730Z,5.66
2019-03-13T21:27:48.056Z,5.66
2019-03-13T21:30:24.771Z,5.68
2019-03-13T21:32:53.053Z,5.62
2019-03-13T21:35:21.499Z,5.83
2019-03-13T21:39:11.638Z,5.91
2019-03-13T21:41:42.895Z,5.87
2019-03-13T21:44:13.868Z,5.87
2019-03-13T21:46:44.831Z,5.86
2019-03-13T21:49:15.811Z,5.76
2019-03-13T21:51:48.262Z,5.80
2019-03-13T21:54:19.543Z,5.87
2019-03-13T21:56:50.471Z,5.81
2019-03-13T21:59:21.467Z,5.80
2019-03-13T22:01:53.894Z,5.80
2019-03-13T22:04:25.173Z,5.78
2019-03-13T22:06:56.153Z,5.76
2019-03-13T22:09:27.131Z,5.80
2019-03-13T22:11:58.048Z,5.80
2019-03-13T22:14:29.039Z,5.84
2019-03-13T22:16:59.978Z,5.88
2019-03-13T22:19:30.930Z,5.95
2019-03-13T22:24:40.762Z,5.96
2019-03-13T22:27:14.962Z,5.90
2019-03-13T22:29:48.492Z,5.91
2019-03-13T22:32:19.805Z,5.90
2019-03-13T22:34:50.762Z,5.95
2019-03-13T22:37:21.684Z,5.91
2019-03-13T22:39:52.646Z,5.95
2019-03-13T22:42:23.610Z,5.89
2019-03-13T22:44:54.882Z,5.90
2019-03-13T22:47:26.029Z,5.89
2019-03-13T22:49:56.985Z,5.92
2019-03-13T22:52:28.001Z,5.88
2019-03-13T22:54:59.013Z,5.91
2019-03-13T22:57:29.873Z,5.90
2019-03-13T23:00:00.779Z,5.86
2019-03-13T23:02:31.890Z,5.82
2019-03-13T23:05:03.855Z,5.88
2019-03-13T23:07:34.835Z,5.82
2019-03-13T23:10:24.236Z,5.79
2019-03-13T23:12:55.362Z,5.71
2019-03-13T23:15:26.357Z,5.83
2019-03-13T23:17:57.571Z,5.82
2019-03-13T23:20:28.462Z,5.77
2019-03-13T23:23:00.327Z,5.69
2019-03-13T23:25:31.287Z,5.77
2019-03-13T23:28:02.745Z,5.67
2019-03-13T23:30:33.637Z,5.70
2019-03-13T23:33:04.595Z,5.70
2019-03-13T23:35:35.497Z,5.67
2019-03-13T23:38:06.422Z,5.69
2019-03-13T23:40:37.333Z,5.71
2019-03-13T23:43:08.287Z,5.59
2019-03-13T23:45:39.222Z,5.53
2019-03-13T23:48:10.181Z,5.48
2019-03-13T23:50:41.099Z,5.55
2019-03-13T23:53:12.019Z,5.48
2019-03-13T23:55:42.968Z,5.46
2019-03-13T23:58:13.883Z,5.52
